sensor_id;sensor_type;location;lat;lon;timestamp;pressure;altitude;pressure_sealevel;temperature;humidity
48624;BME280;34422;45.802;16.114;2022-12-31T00:00:09;100900.81;;;8.67;100.00
48624;BME280;34422;45.802;16.114;2022-12-31T00:02:36;100906.94;;;8.61;100.00
48624;BME280;34422;45.802;16.114;2022-12-31T00:05:03;100904.44;;;8.60;100.00
48624;BME280;34422;45.802;16.114;2022-12-31T00:07:30;100892.59;;;8.46;100.00
48624;BME280;34422;45.802;16.114;2022-12-31T00:09:56;100897.41;;;8.36;100.00
48624;BME280;34422;45.802;16.114;2022-12-31T00:12:23;100888.88;;;8.24;100.00
48624;BME280;34422;45.802;16.114;2022-12-31T00:14:50;100885.06;;;8.18;100.00
48624;BME280;34422;45.802;16.114;2022-12-31T00:17:17;100884.78;;;8.13;100.00
48624;BME280;34422;45.802;16.114;2022-12-31T00:19:44;100883.03;;;7.98;100.00
48624;BME280;34422;45.802;16.114;2022-12-31T00:22:11;100891.22;;;7.90;100.00
48624;BME280;34422;45.802;16.114;2022-12-31T00:24:37;100889.72;;;7.87;100.00
48624;BME280;34422;45.802;16.114;2022-12-31T00:27:04;100891.75;;;7.85;100.00
48624;BME280;34422;45.802;16.114;2022-12-31T00:29:31;100886.66;;;7.90;100.00
48624;BME280;34422;45.802;16.114;2022-12-31T00:31:58;100888.69;;;7.88;100.00
48624;BME280;34422;45.802;16.114;2022-12-31T00:34:24;100898.44;;;7.89;100.00
48624;BME280;34422;45.802;16.114;2022-12-31T00:36:51;100895.41;;;7.92;100.00
48624;BME280;34422;45.802;16.114;2022-12-31T00:39:18;100904.75;;;8.04;100.00
48624;BME280;34422;45.802;16.114;2022-12-31T00:41:45;100895.34;;;8.00;100.00
48624;BME280;34422;45.802;16.114;2022-12-31T00:44:12;100903.81;;;8.12;100.00
48624;BME280;34422;45.802;16.114;2022-12-31T00:46:39;100891.94;;;8.21;100.00
48624;BME280;34422;45.802;16.114;2022-12-31T00:49:07;100896.69;;;8.19;100.00
48624;BME280;34422;45.802;16.114;2022-12-31T00:51:34;100906.66;;;8.18;100.00
48624;BME280;34422;45.802;16.114;2022-12-31T00:54:01;100901.00;;;8.28;100.00
48624;BME280;34422;45.802;16.114;2022-12-31T00:56:29;100906.25;;;8.21;100.00
48624;BME280;34422;45.802;16.114;2022-12-31T00:58:57;100906.66;;;8.18;100.00
48624;BME280;34422;45.802;16.114;2022-12-31T01:01:27;100911.44;;;8.08;100.00
48624;BME280;34422;45.802;16.114;2022-12-31T01:04:06;100904.13;;;7.94;100.00
48624;BME280;34422;45.802;16.114;2022-12-31T01:06:34;100896.09;;;7.86;100.00
48624;BME280;34422;45.802;16.114;2022-12-31T01:09:01;100902.41;;;7.78;100.00
48624;BME280;34422;45.802;16.114;2022-12-31T01:11:28;100902.59;;;7.77;100.00
48624;BME280;34422;45.802;16.114;2022-12-31T01:14:07;100906.66;;;7.73;100.00
48624;BME280;34422;45.802;16.114;2022-12-31T01:16:40;100910.69;;;7.69;100.00
48624;BME280;34422;45.802;16.114;2022-12-31T01:19:20;100907.47;;;7.73;100.00
48624;BME280;34422;45.802;16.114;2022-12-31T01:21:48;100914.59;;;7.66;100.00
48624;BME280;34422;45.802;16.114;2022-12-31T01:24:16;100924.91;;;7.63;100.00
48624;BME280;34422;45.802;16.114;2022-12-31T01:26:43;100920.88;;;7.59;100.00
48624;BME280;34422;45.802;16.114;2022-12-31T01:29:12;100935.34;;;7.58;100.00
48624;BME280;34422;45.802;16.114;2022-12-31T01:31:39;100933.66;;;7.57;100.00
48624;BME280;34422;45.802;16.114;2022-12-31T01:34:07;100940.75;;;7.58;100.00
48624;BME280;34422;45.802;16.114;2022-12-31T01:36:35;100937.94;;;7.51;100.00
48624;BME280;34422;45.802;16.114;2022-12-31T01:39:04;100943.38;;;7.66;100.00
48624;BME280;34422;45.802;16.114;2022-12-31T01:41:39;100949.06;;;7.79;100.00
48624;BME280;34422;45.802;16.114;2022-12-31T01:46:38;100951.06;;;8.23;100.00
48624;BME280;34422;45.802;16.114;2022-12-31T01:49:19;100950.06;;;8.24;100.00
48624;BME280;34422;45.802;16.114;2022-12-31T01:54:33;100957.97;;;8.02;100.00
48624;BME280;34422;45.802;16.114;2022-12-31T01:57:01;100974.81;;;8.04;100.00
48624;BME280;34422;45.802;16.114;2022-12-31T01:59:29;100974.44;;;8.07;100.00
48624;BME280;34422;45.802;16.114;2022-12-31T02:01:58;100977.34;;;8.06;100.00
48624;BME280;34422;45.802;16.114;2022-12-31T02:04:26;100982.59;;;7.99;100.00
48624;BME280;34422;45.802;16.114;2022-12-31T02:06:59;100982.44;;;7.93;100.00
48624;BME280;34422;45.802;16.114;2022-12-31T02:09:27;100986.53;;;7.89;100.00
48624;BME280;34422;45.802;16.114;2022-12-31T02:11:55;100998.16;;;7.89;100.00
48624;BME280;34422;45.802;16.114;2022-12-31T02:14:24;100991.56;;;7.92;100.00
48624;BME280;34422;45.802;16.114;2022-12-31T02:26:08;100987.03;;;7.92;100.00
48624;BME280;34422;45.802;16.114;2022-12-31T02:31:36;101000.53;;;7.84;100.00
48624;BME280;34422;45.802;16.114;2022-12-31T02:34:12;101002.81;;;7.95;100.00
48624;BME280;34422;45.802;16.114;2022-12-31T02:36:43;101000.78;;;7.97;100.00
48624;BME280;34422;45.802;16.114;2022-12-31T02:39:13;100996.72;;;8.01;100.00
48624;BME280;34422;45.802;16.114;2022-12-31T02:41:40;100984.25;;;8.00;100.00
48624;BME280;34422;45.802;16.114;2022-12-31T02:44:27;100980.25;;;7.96;100.00
48624;BME280;34422;45.802;16.114;2022-12-31T02:47:16;100973.59;;;8.07;100.00
48624;BME280;34422;45.802;16.114;2022-12-31T02:53:21;100965.41;;;8.00;100.00
48624;BME280;34422;45.802;16.114;2022-12-31T03:01:23;100986.66;;;7.95;100.00
48624;BME280;34422;45.802;16.114;2022-12-31T03:04:10;100978.88;;;8.00;100.00
48624;BME280;34422;45.802;16.114;2022-12-31T03:07:02;100978.16;;;8.06;100.00
48624;BME280;34422;45.802;16.114;2022-12-31T03:09:29;100968.34;;;8.13;100.00
48624;BME280;34422;45.802;16.114;2022-12-31T03:11:56;100975.06;;;8.17;100.00
48624;BME280;34422;45.802;16.114;2022-12-31T03:14:41;100975.28;;;8.31;100.00
48624;BME280;34422;45.802;16.114;2022-12-31T03:17:08;100982.25;;;8.48;100.00
48624;BME280;34422;45.802;16.114;2022-12-31T03:19:35;100982.06;;;8.49;100.00
48624;BME280;34422;45.802;16.114;2022-12-31T03:22:21;100986.38;;;8.59;100.00
48624;BME280;34422;45.802;16.114;2022-12-31T03:25:04;100994.31;;;8.60;100.00
48624;BME280;34422;45.802;16.114;2022-12-31T03:27:50;100992.91;;;8.64;100.00
48624;BME280;34422;45.802;16.114;2022-12-31T03:30:18;100995.94;;;8.61;100.00
48624;BME280;34422;45.802;16.114;2022-12-31T03:32:46;100996.75;;;8.70;100.00
48624;BME280;34422;45.802;16.114;2022-12-31T03:35:15;101002.00;;;8.63;100.00
48624;BME280;34422;45.802;16.114;2022-12-31T03:37:42;101005.63;;;8.55;100.00
48624;BME280;34422;45.802;16.114;2022-12-31T03:40:11;100996.38;;;8.50;100.00
48624;BME280;34422;45.802;16.114;2022-12-31T03:42:38;101000.09;;;8.49;100.00
48624;BME280;34422;45.802;16.114;2022-12-31T03:45:06;100998.06;;;8.51;100.00
48624;BME280;34422;45.802;16.114;2022-12-31T03:47:33;100987.47;;;8.49;100.00
48624;BME280;34422;45.802;16.114;2022-12-31T03:50:00;100999.25;;;8.48;100.00
48624;BME280;34422;45.802;16.114;2022-12-31T03:52:27;101002.53;;;8.44;100.00
48624;BME280;34422;45.802;16.114;2022-12-31T03:54:54;101006.50;;;8.48;100.00
48624;BME280;34422;45.802;16.114;2022-12-31T03:57:22;101008.63;;;8.38;100.00
48624;BME280;34422;45.802;16.114;2022-12-31T03:59:49;101007.66;;;8.31;100.00
48624;BME280;34422;45.802;16.114;2022-12-31T04:02:15;101014.75;;;8.32;100.00
48624;BME280;34422;45.802;16.114;2022-12-31T04:04:42;101007.34;;;8.26;100.00
48624;BME280;34422;45.802;16.114;2022-12-31T04:07:09;101014.47;;;8.18;100.00
48624;BME280;34422;45.802;16.114;2022-12-31T04:09:36;101019.88;;;8.18;100.00
48624;BME280;34422;45.802;16.114;2022-12-31T04:12:03;101017.88;;;8.12;100.00
48624;BME280;34422;45.802;16.114;2022-12-31T04:14:30;101035.78;;;8.05;100.00
48624;BME280;34422;45.802;16.114;2022-12-31T04:16:57;101035.16;;;7.95;100.00
48624;BME280;34422;45.802;16.114;2022-12-31T04:19:24;101041.25;;;7.89;100.00
48624;BME280;34422;45.802;16.114;2022-12-31T04:21:51;101049.38;;;7.81;100.00
48624;BME280;34422;45.802;16.114;2022-12-31T04:24:18;101051.78;;;7.76;100.00
48624;BME280;34422;45.802;16.114;2022-12-31T04:26:45;101049.94;;;7.68;100.00
48624;BME280;34422;45.802;16.114;2022-12-31T04:29:11;101039.38;;;7.59;100.00
48624;BME280;34422;45.802;16.114;2022-12-31T04:31:38;101039.38;;;7.59;100.00
48624;BME280;34422;45.802;16.114;2022-12-31T04:34:05;101029.56;;;7.66;100.00
48624;BME280;34422;45.802;16.114;2022-12-31T04:36:32;101033.22;;;7.81;100.00
48624;BME280;34422;45.802;16.114;2022-12-31T04:38:59;101035.69;;;7.91;100.00
48624;BME280;34422;45.802;16.114;2022-12-31T04:41:26;101042.63;;;7.85;100.00
48624;BME280;34422;45.802;16.114;2022-12-31T04:43:56;101032.56;;;7.79;100.00
48624;BME280;34422;45.802;16.114;2022-12-31T04:46:25;101042.31;;;7.80;100.00
48624;BME280;34422;45.802;16.114;2022-12-31T04:48:53;101047.22;;;7.76;100.00
48624;BME280;34422;45.802;16.114;2022-12-31T04:51:20;101042.03;;;7.67;100.00
48624;BME280;34422;45.802;16.114;2022-12-31T04:53:47;101063.56;;;7.67;100.00
48624;BME280;34422;45.802;16.114;2022-12-31T04:56:15;101055.88;;;7.56;100.00
48624;BME280;34422;45.802;16.114;2022-12-31T04:58:42;101060.41;;;7.55;100.00
48624;BME280;34422;45.802;16.114;2022-12-31T05:01:10;101073.41;;;7.52;100.00
48624;BME280;34422;45.802;16.114;2022-12-31T05:03:37;101061.75;;;7.59;100.00
48624;BME280;34422;45.802;16.114;2022-12-31T05:06:07;101061.88;;;7.66;100.00
48624;BME280;34422;45.802;16.114;2022-12-31T05:08:34;101071.13;;;7.71;100.00
48624;BME280;34422;45.802;16.114;2022-12-31T05:11:01;101065.28;;;7.60;100.00
48624;BME280;34422;45.802;16.114;2022-12-31T05:13:28;101074.06;;;7.54;100.00
48624;BME280;34422;45.802;16.114;2022-12-31T05:15:55;101086.88;;;7.52;100.00
48624;BME280;34422;45.802;16.114;2022-12-31T05:18:22;101085.53;;;7.47;100.00
48624;BME280;34422;45.802;16.114;2022-12-31T05:20:49;101074.09;;;7.45;100.00
48624;BME280;34422;45.802;16.114;2022-12-31T05:23:16;101078.31;;;7.40;100.00
48624;BME280;34422;45.802;16.114;2022-12-31T05:25:45;101071.44;;;7.37;100.00
48624;BME280;34422;45.802;16.114;2022-12-31T05:28:13;101067.22;;;7.35;100.00
48624;BME280;34422;45.802;16.114;2022-12-31T05:30:40;101077.66;;;7.30;100.00
48624;BME280;34422;45.802;16.114;2022-12-31T05:33:08;101077.16;;;7.26;100.00
48624;BME280;34422;45.802;16.114;2022-12-31T05:35:35;101084.94;;;7.21;100.00
48624;BME280;34422;45.802;16.114;2022-12-31T05:38:02;101077.53;;;7.15;100.00
48624;BME280;34422;45.802;16.114;2022-12-31T05:40:29;101088.63;;;7.20;100.00
48624;BME280;34422;45.802;16.114;2022-12-31T05:42:56;101099.72;;;7.17;100.00
48624;BME280;34422;45.802;16.114;2022-12-31T05:45:23;101088.97;;;7.17;100.00
48624;BME280;34422;45.802;16.114;2022-12-31T05:47:50;101102.09;;;7.04;100.00
48624;BME280;34422;45.802;16.114;2022-12-31T05:50:17;101099.75;;;6.93;100.00
48624;BME280;34422;45.802;16.114;2022-12-31T05:52:44;101100.75;;;6.92;100.00
48624;BME280;34422;45.802;16.114;2022-12-31T05:55:12;101102.44;;;7.01;100.00
48624;BME280;34422;45.802;16.114;2022-12-31T05:57:38;101113.88;;;7.03;100.00
48624;BME280;34422;45.802;16.114;2022-12-31T06:00:07;101115.72;;;6.94;100.00
48624;BME280;34422;45.802;16.114;2022-12-31T06:02:35;101127.31;;;6.87;100.00
48624;BME280;34422;45.802;16.114;2022-12-31T06:05:02;101142.09;;;6.74;100.00
48624;BME280;34422;45.802;16.114;2022-12-31T06:07:29;101140.09;;;6.68;100.00
48624;BME280;34422;45.802;16.114;2022-12-31T06:09:55;101134.72;;;6.76;100.00
48624;BME280;34422;45.802;16.114;2022-12-31T06:12:22;101139.09;;;6.77;100.00
48624;BME280;34422;45.802;16.114;2022-12-31T06:14:49;101135.38;;;6.70;100.00
48624;BME280;34422;45.802;16.114;2022-12-31T06:17:16;101133.53;;;6.63;100.00
48624;BME280;34422;45.802;16.114;2022-12-31T06:19:43;101125.94;;;6.58;100.00
48624;BME280;34422;45.802;16.114;2022-12-31T06:22:09;101134.00;;;6.58;100.00
48624;BME280;34422;45.802;16.114;2022-12-31T06:24:36;101128.97;;;6.63;100.00
48624;BME280;34422;45.802;16.114;2022-12-31T06:27:03;101139.41;;;6.74;100.00
48624;BME280;34422;45.802;16.114;2022-12-31T06:29:33;101140.41;;;6.73;100.00
48624;BME280;34422;45.802;16.114;2022-12-31T06:32:00;101149.16;;;6.75;100.00
48624;BME280;34422;45.802;16.114;2022-12-31T06:34:27;101145.81;;;6.82;100.00
48624;BME280;34422;45.802;16.114;2022-12-31T06:36:54;101148.00;;;6.86;100.00
48624;BME280;34422;45.802;16.114;2022-12-31T06:39:21;101152.53;;;6.77;100.00
48624;BME280;34422;45.802;16.114;2022-12-31T06:41:47;101157.53;;;6.56;100.00
48624;BME280;34422;45.802;16.114;2022-12-31T06:44:14;101158.69;;;6.46;100.00
48624;BME280;34422;45.802;16.114;2022-12-31T06:46:41;101169.84;;;6.75;100.00
48624;BME280;34422;45.802;16.114;2022-12-31T06:49:08;101174.91;;;6.94;100.00
48624;BME280;34422;45.802;16.114;2022-12-31T06:51:35;101190.56;;;7.07;100.00
48624;BME280;34422;45.802;16.114;2022-12-31T06:54:02;101176.09;;;7.16;100.00
48624;BME280;34422;45.802;16.114;2022-12-31T06:56:29;101184.19;;;7.32;100.00
48624;BME280;34422;45.802;16.114;2022-12-31T06:58:56;101192.75;;;7.44;100.00
48624;BME280;34422;45.802;16.114;2022-12-31T07:01:45;101186.19;;;7.46;100.00
48624;BME280;34422;45.802;16.114;2022-12-31T07:07:06;101204.34;;;7.61;100.00
48624;BME280;34422;45.802;16.114;2022-12-31T07:12:30;101206.00;;;7.78;100.00
48624;BME280;34422;45.802;16.114;2022-12-31T07:15:13;101208.16;;;7.82;100.00
48624;BME280;34422;45.802;16.114;2022-12-31T07:20:27;101211.16;;;7.96;100.00
48624;BME280;34422;45.802;16.114;2022-12-31T07:22:54;101214.03;;;8.02;100.00
48624;BME280;34422;45.802;16.114;2022-12-31T07:25:21;101223.09;;;8.09;100.00
48624;BME280;34422;45.802;16.114;2022-12-31T07:27:58;101225.44;;;8.12;100.00
48624;BME280;34422;45.802;16.114;2022-12-31T07:39:07;101220.28;;;8.81;100.00
48624;BME280;34422;45.802;16.114;2022-12-31T07:47:22;101210.84;;;9.45;100.00
48624;BME280;34422;45.802;16.114;2022-12-31T07:49:49;101215.59;;;9.81;100.00
48624;BME280;34422;45.802;16.114;2022-12-31T07:52:17;101216.06;;;9.99;100.00
48624;BME280;34422;45.802;16.114;2022-12-31T07:54:45;101221.13;;;10.31;100.00
48624;BME280;34422;45.802;16.114;2022-12-31T07:57:15;101226.88;;;10.58;100.00
48624;BME280;34422;45.802;16.114;2022-12-31T08:00:05;101236.47;;;10.75;100.00
48624;BME280;34422;45.802;16.114;2022-12-31T08:05:50;101240.66;;;11.14;100.00
48624;BME280;34422;45.802;16.114;2022-12-31T08:08:25;101240.41;;;11.30;100.00
48624;BME280;34422;45.802;16.114;2022-12-31T08:13:32;101250.44;;;11.36;100.00
48624;BME280;34422;45.802;16.114;2022-12-31T08:16:00;101257.97;;;11.34;100.00
48624;BME280;34422;45.802;16.114;2022-12-31T08:18:27;101259.00;;;11.33;100.00
48624;BME280;34422;45.802;16.114;2022-12-31T08:21:06;101268.16;;;11.32;100.00
48624;BME280;34422;45.802;16.114;2022-12-31T08:24:05;101277.16;;;11.18;100.00
48624;BME280;34422;45.802;16.114;2022-12-31T08:27:03;101280.44;;;11.13;100.00
48624;BME280;34422;45.802;16.114;2022-12-31T08:32:17;101281.41;;;11.06;100.00
48624;BME280;34422;45.802;16.114;2022-12-31T08:37:35;101291.59;;;11.03;100.00
48624;BME280;34422;45.802;16.114;2022-12-31T08:40:25;101299.59;;;11.12;100.00
48624;BME280;34422;45.802;16.114;2022-12-31T08:43:13;101311.34;;;11.19;100.00
48624;BME280;34422;45.802;16.114;2022-12-31T08:45:47;101316.78;;;11.19;100.00
48624;BME280;34422;45.802;16.114;2022-12-31T08:50:57;101328.66;;;11.39;100.00
48624;BME280;34422;45.802;16.114;2022-12-31T08:53:24;101314.84;;;11.55;100.00
48624;BME280;34422;45.802;16.114;2022-12-31T08:56:09;101323.00;;;11.77;100.00
48624;BME280;34422;45.802;16.114;2022-12-31T09:01:07;101325.94;;;12.03;100.00
48624;BME280;34422;45.802;16.114;2022-12-31T09:03:44;101321.03;;;12.13;100.00
48624;BME280;34422;45.802;16.114;2022-12-31T09:06:22;101331.34;;;12.24;100.00
48624;BME280;34422;45.802;16.114;2022-12-31T09:12:20;101329.09;;;12.34;100.00
48624;BME280;34422;45.802;16.114;2022-12-31T09:17:48;101344.56;;;12.34;100.00
48624;BME280;34422;45.802;16.114;2022-12-31T09:20:28;101338.38;;;12.46;100.00
48624;BME280;34422;45.802;16.114;2022-12-31T09:22:57;101339.22;;;12.47;100.00
48624;BME280;34422;45.802;16.114;2022-12-31T09:25:25;101355.03;;;12.37;100.00
48624;BME280;34422;45.802;16.114;2022-12-31T09:28:20;101356.16;;;12.21;100.00
48624;BME280;34422;45.802;16.114;2022-12-31T09:31:01;101355.28;;;12.14;100.00
48624;BME280;34422;45.802;16.114;2022-12-31T09:33:49;101350.69;;;12.15;100.00
48624;BME280;34422;45.802;16.114;2022-12-31T09:36:24;101340.66;;;12.43;100.00
48624;BME280;34422;45.802;16.114;2022-12-31T09:39:00;101339.81;;;12.77;100.00
48624;BME280;34422;45.802;16.114;2022-12-31T09:41:49;101336.19;;;13.04;100.00
48624;BME280;34422;45.802;16.114;2022-12-31T09:56:38;101337.28;;;14.04;100.00
48624;BME280;34422;45.802;16.114;2022-12-31T09:59:28;101332.47;;;14.19;100.00
48624;BME280;34422;45.802;16.114;2022-12-31T10:10:55;101327.66;;;14.21;100.00
48624;BME280;34422;45.802;16.114;2022-12-31T10:13:45;101331.78;;;14.37;100.00
48624;BME280;34422;45.802;16.114;2022-12-31T10:22:04;101329.69;;;14.65;100.00
48624;BME280;34422;45.802;16.114;2022-12-31T10:29:58;101338.91;;;14.64;100.00
48624;BME280;34422;45.802;16.114;2022-12-31T10:35:35;101333.81;;;14.81;100.00
48624;BME280;34422;45.802;16.114;2022-12-31T10:46:35;101330.84;;;15.02;100.00
48624;BME280;34422;45.802;16.114;2022-12-31T10:49:49;101332.44;;;15.16;100.00
48624;BME280;34422;45.802;16.114;2022-12-31T11:26:36;101305.22;;;16.04;100.00
48624;BME280;34422;45.802;16.114;2022-12-31T11:29:17;101300.78;;;16.10;100.00
48624;BME280;34422;45.802;16.114;2022-12-31T11:32:05;101307.44;;;16.14;100.00
48624;BME280;34422;45.802;16.114;2022-12-31T11:39:53;101301.56;;;16.35;100.00
48624;BME280;34422;45.802;16.114;2022-12-31T11:42:40;101295.28;;;16.34;100.00
48624;BME280;34422;45.802;16.114;2022-12-31T11:47:58;101290.47;;;16.30;100.00
48624;BME280;34422;45.802;16.114;2022-12-31T11:53:20;101290.88;;;16.33;100.00
48624;BME280;34422;45.802;16.114;2022-12-31T11:58:36;101282.47;;;16.35;100.00
48624;BME280;34422;45.802;16.114;2022-12-31T12:01:14;101285.81;;;16.37;100.00
48624;BME280;34422;45.802;16.114;2022-12-31T12:03:43;101285.81;;;16.37;100.00
48624;BME280;34422;45.802;16.114;2022-12-31T12:06:12;101271.94;;;16.39;100.00
48624;BME280;34422;45.802;16.114;2022-12-31T12:08:40;101281.03;;;16.51;100.00
48624;BME280;34422;45.802;16.114;2022-12-31T12:11:18;101269.56;;;16.42;100.00
48624;BME280;34422;45.802;16.114;2022-12-31T12:13:46;101270.09;;;16.51;100.00
48624;BME280;34422;45.802;16.114;2022-12-31T12:16:13;101276.41;;;16.51;100.00
48624;BME280;34422;45.802;16.114;2022-12-31T12:19:04;101269.16;;;16.63;100.00
48624;BME280;34422;45.802;16.114;2022-12-31T12:21:32;101273.56;;;16.64;100.00
48624;BME280;34422;45.802;16.114;2022-12-31T12:24:17;101274.16;;;16.66;100.00
48624;BME280;34422;45.802;16.114;2022-12-31T12:26:45;101281.22;;;16.74;99.48
48624;BME280;34422;45.802;16.114;2022-12-31T12:29:24;101275.34;;;16.70;96.74
48624;BME280;34422;45.802;16.114;2022-12-31T12:34:28;101269.38;;;16.80;94.78
48624;BME280;34422;45.802;16.114;2022-12-31T12:36:55;101270.34;;;16.86;98.45
48624;BME280;34422;45.802;16.114;2022-12-31T12:39:28;101266.78;;;16.85;95.35
48624;BME280;34422;45.802;16.114;2022-12-31T12:42:04;101260.91;;;16.82;95.70
48624;BME280;34422;45.802;16.114;2022-12-31T12:44:32;101268.81;;;16.90;95.89
48624;BME280;34422;45.802;16.114;2022-12-31T12:47:02;101266.03;;;16.78;92.83
48624;BME280;34422;45.802;16.114;2022-12-31T12:49:38;101267.31;;;16.76;94.49
48624;BME280;34422;45.802;16.114;2022-12-31T13:00:15;101268.59;;;16.73;93.19
48624;BME280;34422;45.802;16.114;2022-12-31T13:05:57;101273.06;;;16.86;95.46
48624;BME280;34422;45.802;16.114;2022-12-31T13:15:03;101261.41;;;16.79;94.11
48624;BME280;34422;45.802;16.114;2022-12-31T13:22:41;101264.34;;;16.77;92.22
48624;BME280;34422;45.802;16.114;2022-12-31T13:28:03;101261.03;;;16.75;93.74
48624;BME280;34422;45.802;16.114;2022-12-31T13:30:35;101264.19;;;16.72;93.92
48624;BME280;34422;45.802;16.114;2022-12-31T13:36:00;101282.88;;;16.75;93.39
48624;BME280;34422;45.802;16.114;2022-12-31T13:38:28;101282.94;;;16.68;95.23
48624;BME280;34422;45.802;16.114;2022-12-31T13:41:04;101288.88;;;16.65;95.42
48624;BME280;34422;45.802;16.114;2022-12-31T13:46:37;101302.56;;;16.65;94.25
48624;BME280;34422;45.802;16.114;2022-12-31T13:49:24;101293.88;;;16.68;92.96
48624;BME280;34422;45.802;16.114;2022-12-31T13:55:03;101291.88;;;16.57;93.05
48624;BME280;34422;45.802;16.114;2022-12-31T13:57:41;101298.88;;;16.53;94.12
48624;BME280;34422;45.802;16.114;2022-12-31T14:00:22;101293.25;;;16.48;94.11
48624;BME280;34422;45.802;16.114;2022-12-31T14:03:21;101290.97;;;16.45;95.35
48624;BME280;34422;45.802;16.114;2022-12-31T14:06:00;101293.31;;;16.42;96.03
48624;BME280;34422;45.802;16.114;2022-12-31T14:08:28;101285.19;;;16.35;96.40
48624;BME280;34422;45.802;16.114;2022-12-31T14:16:20;101301.53;;;16.17;98.21
48624;BME280;34422;45.802;16.114;2022-12-31T14:19:25;101303.78;;;16.02;100.00
48624;BME280;34422;45.802;16.114;2022-12-31T14:22:22;101295.59;;;16.02;99.88
48624;BME280;34422;45.802;16.114;2022-12-31T14:24:54;101296.13;;;15.85;100.00
48624;BME280;34422;45.802;16.114;2022-12-31T14:27:32;101285.06;;;15.80;100.00
48624;BME280;34422;45.802;16.114;2022-12-31T14:30:32;101288.84;;;15.79;100.00
48624;BME280;34422;45.802;16.114;2022-12-31T14:36:13;101283.16;;;15.49;100.00
48624;BME280;34422;45.802;16.114;2022-12-31T14:44:26;101299.75;;;15.10;100.00
48624;BME280;34422;45.802;16.114;2022-12-31T14:54:57;101293.84;;;14.75;100.00
48624;BME280;34422;45.802;16.114;2022-12-31T14:57:26;101296.41;;;14.56;100.00
48624;BME280;34422;45.802;16.114;2022-12-31T15:00:00;101298.28;;;14.49;100.00
48624;BME280;34422;45.802;16.114;2022-12-31T15:02:31;101294.97;;;14.41;100.00
48624;BME280;34422;45.802;16.114;2022-12-31T15:13:12;101302.09;;;14.02;100.00
48624;BME280;34422;45.802;16.114;2022-12-31T15:24:16;101307.91;;;13.53;100.00
48624;BME280;34422;45.802;16.114;2022-12-31T15:26:53;101302.88;;;13.37;100.00
48624;BME280;34422;45.802;16.114;2022-12-31T15:31:57;101313.72;;;13.24;100.00
48624;BME280;34422;45.802;16.114;2022-12-31T15:34:28;101308.25;;;13.17;100.00
48624;BME280;34422;45.802;16.114;2022-12-31T15:36:58;101310.97;;;13.17;100.00
48624;BME280;34422;45.802;16.114;2022-12-31T15:39:36;101306.09;;;13.06;100.00
48624;BME280;34422;45.802;16.114;2022-12-31T15:42:27;101307.13;;;12.98;100.00
48624;BME280;34422;45.802;16.114;2022-12-31T15:45:02;101319.59;;;12.86;100.00
48624;BME280;34422;45.802;16.114;2022-12-31T15:47:39;101314.50;;;12.70;100.00
48624;BME280;34422;45.802;16.114;2022-12-31T15:50:14;101332.19;;;12.59;100.00
48624;BME280;34422;45.802;16.114;2022-12-31T15:53:02;101320.91;;;12.56;100.00
48624;BME280;34422;45.802;16.114;2022-12-31T15:55:37;101338.34;;;12.40;100.00
48624;BME280;34422;45.802;16.114;2022-12-31T15:58:13;101340.97;;;12.27;100.00
48624;BME280;34422;45.802;16.114;2022-12-31T16:00:58;101342.13;;;12.18;100.00
48624;BME280;34422;45.802;16.114;2022-12-31T16:03:28;101342.75;;;12.13;100.00
48624;BME280;34422;45.802;16.114;2022-12-31T16:06:01;101340.44;;;12.17;100.00
48624;BME280;34422;45.802;16.114;2022-12-31T16:08:31;101339.78;;;12.08;100.00
48624;BME280;34422;45.802;16.114;2022-12-31T16:11:01;101340.84;;;11.86;100.00
48624;BME280;34422;45.802;16.114;2022-12-31T16:13:29;101337.84;;;11.81;100.00
48624;BME280;34422;45.802;16.114;2022-12-31T16:16:03;101338.63;;;11.74;100.00
48624;BME280;34422;45.802;16.114;2022-12-31T16:18:41;101339.00;;;11.71;100.00
48624;BME280;34422;45.802;16.114;2022-12-31T16:24:27;101340.97;;;11.63;100.00
48624;BME280;34422;45.802;16.114;2022-12-31T16:26:57;101342.44;;;11.59;100.00
48624;BME280;34422;45.802;16.114;2022-12-31T16:29:25;101347.13;;;11.50;100.00
48624;BME280;34422;45.802;16.114;2022-12-31T16:31:52;101352.84;;;11.40;100.00
48624;BME280;34422;45.802;16.114;2022-12-31T16:34:24;101356.13;;;11.36;100.00
48624;BME280;34422;45.802;16.114;2022-12-31T16:37:03;101354.84;;;11.32;100.00
48624;BME280;34422;45.802;16.114;2022-12-31T16:39:36;101356.63;;;11.25;100.00
48624;BME280;34422;45.802;16.114;2022-12-31T16:44:33;101361.50;;;11.15;100.00
48624;BME280;34422;45.802;16.114;2022-12-31T16:47:01;101367.88;;;11.07;100.00
48624;BME280;34422;45.802;16.114;2022-12-31T16:49:30;101365.75;;;11.02;100.00
48624;BME280;34422;45.802;16.114;2022-12-31T16:52:02;101366.47;;;10.96;100.00
48624;BME280;34422;45.802;16.114;2022-12-31T16:54:34;101368.25;;;11.04;100.00
48624;BME280;34422;45.802;16.114;2022-12-31T16:57:03;101373.75;;;11.11;100.00
48624;BME280;34422;45.802;16.114;2022-12-31T16:59:39;101373.75;;;11.11;100.00
48624;BME280;34422;45.802;16.114;2022-12-31T17:02:22;101365.91;;;11.16;100.00
48624;BME280;34422;45.802;16.114;2022-12-31T17:04:51;101377.31;;;11.11;100.00
48624;BME280;34422;45.802;16.114;2022-12-31T17:07:37;101377.31;;;10.96;100.00